sensor_id;sensor_type;location;lat;lon;timestamp;temperature;humidity
77803;DHT22;66993;48.256;16.422;2023-03-12T00:00:16;1.1;62.0
77803;DHT22;66993;48.256;16.422;2023-03-12T00:05:16;1.1;62.0
77803;DHT22;66993;48.256;16.422;2023-03-12T00:10:16;0.9;62.0
77803;DHT22;66993;48.256;16.422;2023-03-12T00:15:16;0.9;62.0
77803;DHT22;66993;48.256;16.422;2023-03-12T00:20:16;1.0;62.0
77803;DHT22;66993;48.256;16.422;2023-03-12T00:25:16;0.9;63.0
77803;DHT22;66993;48.256;16.422;2023-03-12T00:30:16;1.1;63.0
77803;DHT22;66993;48.256;16.422;2023-03-12T00:35:16;1.1;63.0
77803;DHT22;66993;48.256;16.422;2023-03-12T00:40:16;1.2;63.0
77803;DHT22;66993;48.256;16.422;2023-03-12T00:45:16;1.1;63.0
77803;DHT22;66993;48.256;16.422;2023-03-12T00:50:16;0.9;63.0
77803;DHT22;66993;48.256;16.422;2023-03-12T00:55:16;0.9;63.0
77803;DHT22;66993;48.256;16.422;2023-03-12T01:00:16;1.0;64.0
77803;DHT22;66993;48.256;16.422;2023-03-12T01:05:16;1.1;64.0
77803;DHT22;66993;48.256;16.422;2023-03-12T01:10:16;1.0;64.0
77803;DHT22;66993;48.256;16.422;2023-03-12T01:15:16;0.9;64.0
77803;DHT22;66993;48.256;16.422;2023-03-12T01:20:16;0.9;64.0
77803;DHT22;66993;48.256;16.422;2023-03-12T01:25:16;0.9;64.0
77803;DHT22;66993;48.256;16.422;2023-03-12T01:30:16;0.6;64.0
77803;DHT22;66993;48.256;16.422;2023-03-12T01:35:16;0.6;64.0
77803;DHT22;66993;48.256;16.422;2023-03-12T01:40:17;0.5;64.0
77803;DHT22;66993;48.256;16.422;2023-03-12T01:50:16;0.7;65.0
77803;DHT22;66993;48.256;16.422;2023-03-12T01:55:16;0.4;65.0
77803;DHT22;66993;48.256;16.422;2023-03-12T02:00:17;0.1;65.0
77803;DHT22;66993;48.256;16.422;2023-03-12T02:05:18;0.1;65.0
77803;DHT22;66993;48.256;16.422;2023-03-12T02:10:16;0.0;65.0
77803;DHT22;66993;48.256;16.422;2023-03-12T02:15:16;-0.1;65.0
77803;DHT22;66993;48.256;16.422;2023-03-12T02:20:17;-0.2;65.0
77803;DHT22;66993;48.256;16.422;2023-03-12T02:25:20;-0.4;66.0
77803;DHT22;66993;48.256;16.422;2023-03-12T02:30:16;-0.1;66.0
77803;DHT22;66993;48.256;16.422;2023-03-12T02:35:16;-0.2;66.0
77803;DHT22;66993;48.256;16.422;2023-03-12T02:40:17;-0.2;66.0
77803;DHT22;66993;48.256;16.422;2023-03-12T02:45:16;0.0;67.0
77803;DHT22;66993;48.256;16.422;2023-03-12T02:50:16;0.0;67.0
77803;DHT22;66993;48.256;16.422;2023-03-12T02:55:16;0.0;67.0
77803;DHT22;66993;48.256;16.422;2023-03-12T03:00:16;0.0;67.0
77803;DHT22;66993;48.256;16.422;2023-03-12T03:05:16;0.1;68.0
77803;DHT22;66993;48.256;16.422;2023-03-12T03:10:16;0.0;68.0
77803;DHT22;66993;48.256;16.422;2023-03-12T03:15:16;-0.1;68.0
77803;DHT22;66993;48.256;16.422;2023-03-12T03:20:16;-0.1;68.0
77803;DHT22;66993;48.256;16.422;2023-03-12T03:25:16;-0.1;68.0
77803;DHT22;66993;48.256;16.422;2023-03-12T03:30:16;-0.2;68.0
77803;DHT22;66993;48.256;16.422;2023-03-12T03:35:16;-0.3;68.0
77803;DHT22;66993;48.256;16.422;2023-03-12T03:40:16;-0.3;68.0
77803;DHT22;66993;48.256;16.422;2023-03-12T03:45:16;-0.4;68.0
77803;DHT22;66993;48.256;16.422;2023-03-12T03:50:16;-0.6;68.0
77803;DHT22;66993;48.256;16.422;2023-03-12T03:55:16;-0.6;68.0
77803;DHT22;66993;48.256;16.422;2023-03-12T04:00:16;-0.6;69.0
77803;DHT22;66993;48.256;16.422;2023-03-12T04:05:16;-0.4;69.0
77803;DHT22;66993;48.256;16.422;2023-03-12T04:10:17;-0.3;69.0
77803;DHT22;66993;48.256;16.422;2023-03-12T04:15:16;-0.4;69.0
77803;DHT22;66993;48.256;16.422;2023-03-12T04:20:16;-0.3;69.0
77803;DHT22;66993;48.256;16.422;2023-03-12T04:25:16;-0.4;69.0
77803;DHT22;66993;48.256;16.422;2023-03-12T04:30:16;-0.4;69.0
77803;DHT22;66993;48.256;16.422;2023-03-12T04:35:16;-0.4;70.0
77803;DHT22;66993;48.256;16.422;2023-03-12T04:40:16;-0.3;69.0
77803;DHT22;66993;48.256;16.422;2023-03-12T04:45:16;-0.4;70.0
77803;DHT22;66993;48.256;16.422;2023-03-12T04:50:16;-0.5;70.0
77803;DHT22;66993;48.256;16.422;2023-03-12T04:55:16;-0.5;70.0
77803;DHT22;66993;48.256;16.422;2023-03-12T05:00:16;-0.6;70.0
77803;DHT22;66993;48.256;16.422;2023-03-12T05:05:16;-0.7;70.0
77803;DHT22;66993;48.256;16.422;2023-03-12T05:10:16;-0.8;70.0
77803;DHT22;66993;48.256;16.422;2023-03-12T05:15:16;-0.6;70.0
77803;DHT22;66993;48.256;16.422;2023-03-12T05:20:16;-0.7;70.0
77803;DHT22;66993;48.256;16.422;2023-03-12T05:25:16;-0.7;70.0
77803;DHT22;66993;48.256;16.422;2023-03-12T05:30:16;-0.7;70.0
77803;DHT22;66993;48.256;16.422;2023-03-12T05:35:16;-0.7;70.0
77803;DHT22;66993;48.256;16.422;2023-03-12T05:40:16;-0.8;70.0
77803;DHT22;66993;48.256;16.422;2023-03-12T05:45:16;-0.7;70.0
77803;DHT22;66993;48.256;16.422;2023-03-12T05:50:16;-0.7;70.0
77803;DHT22;66993;48.256;16.422;2023-03-12T05:55:16;-0.6;70.0
77803;DHT22;66993;48.256;16.422;2023-03-12T06:00:16;-0.6;71.0
77803;DHT22;66993;48.256;16.422;2023-03-12T06:05:16;-0.5;71.0
77803;DHT22;66993;48.256;16.422;2023-03-12T06:10:16;-0.3;71.0
77803;DHT22;66993;48.256;16.422;2023-03-12T06:15:16;-0.1;71.0
77803;DHT22;66993;48.256;16.422;2023-03-12T06:20:16;0.1;71.0
77803;DHT22;66993;48.256;16.422;2023-03-12T06:25:16;0.3;71.0
77803;DHT22;66993;48.256;16.422;2023-03-12T06:30:16;0.5;70.0
77803;DHT22;66993;48.256;16.422;2023-03-12T06:35:16;0.8;69.0
77803;DHT22;66993;48.256;16.422;2023-03-12T06:40:16;0.9;69.0
77803;DHT22;66993;48.256;16.422;2023-03-12T06:45:16;1.0;68.0
77803;DHT22;66993;48.256;16.422;2023-03-12T06:50:16;1.2;66.0
77803;DHT22;66993;48.256;16.422;2023-03-12T06:55:16;1.3;65.0
77803;DHT22;66993;48.256;16.422;2023-03-12T07:00:16;1.6;61.0
77803;DHT22;66993;48.256;16.422;2023-03-12T07:05:16;1.9;59.0
77803;DHT22;66993;48.256;16.422;2023-03-12T07:10:16;2.1;56.0
77803;DHT22;66993;48.256;16.422;2023-03-12T07:15:16;2.4;55.0
77803;DHT22;66993;48.256;16.422;2023-03-12T07:20:16;2.4;51.0
77803;DHT22;66993;48.256;16.422;2023-03-12T07:25:16;2.6;50.0
77803;DHT22;66993;48.256;16.422;2023-03-12T07:30:16;2.6;48.0
77803;DHT22;66993;48.256;16.422;2023-03-12T07:35:16;3.1;49.0
77803;DHT22;66993;48.256;16.422;2023-03-12T07:40:16;3.5;51.0
77803;DHT22;66993;48.256;16.422;2023-03-12T07:45:16;3.5;51.0
77803;DHT22;66993;48.256;16.422;2023-03-12T07:50:17;3.3;53.0
77803;DHT22;66993;48.256;16.422;2023-03-12T07:55:16;3.7;53.0
77803;DHT22;66993;48.256;16.422;2023-03-12T08:00:16;3.7;54.0
77803;DHT22;66993;48.256;16.422;2023-03-12T08:05:16;3.8;54.0
77803;DHT22;66993;48.256;16.422;2023-03-12T08:10:16;3.6;53.0
77803;DHT22;66993;48.256;16.422;2023-03-12T08:15:16;4.1;54.0
77803;DHT22;66993;48.256;16.422;2023-03-12T08:20:16;4.0;54.0
77803;DHT22;66993;48.256;16.422;2023-03-12T08:25:16;4.1;54.0
77803;DHT22;66993;48.256;16.422;2023-03-12T08:30:16;4.5;54.0
77803;DHT22;66993;48.256;16.422;2023-03-12T08:35:16;5.0;54.0
77803;DHT22;66993;48.256;16.422;2023-03-12T08:40:16;4.5;54.0
77803;DHT22;66993;48.256;16.422;2023-03-12T08:45:16;5.0;54.0
77803;DHT22;66993;48.256;16.422;2023-03-12T08:50:16;4.8;54.0
77803;DHT22;66993;48.256;16.422;2023-03-12T08:55:16;4.9;54.0
77803;DHT22;66993;48.256;16.422;2023-03-12T09:00:16;5.9;54.0
77803;DHT22;66993;48.256;16.422;2023-03-12T09:05:16;5.4;54.0
77803;DHT22;66993;48.256;16.422;2023-03-12T09:10:16;4.9;54.0
77803;DHT22;66993;48.256;16.422;2023-03-12T09:15:16;5.4;54.0
77803;DHT22;66993;48.256;16.422;2023-03-12T09:20:16;5.7;54.0
77803;DHT22;66993;48.256;16.422;2023-03-12T09:25:16;5.2;54.0
77803;DHT22;66993;48.256;16.422;2023-03-12T09:30:17;5.7;53.0
77803;DHT22;66993;48.256;16.422;2023-03-12T09:35:16;5.4;53.0
77803;DHT22;66993;48.256;16.422;2023-03-12T09:40:17;5.9;53.0
77803;DHT22;66993;48.256;16.422;2023-03-12T09:45:18;6.1;52.0
77803;DHT22;66993;48.256;16.422;2023-03-12T09:50:18;6.4;52.0
77803;DHT22;66993;48.256;16.422;2023-03-12T09:55:17;6.2;52.0
77803;DHT22;66993;48.256;16.422;2023-03-12T10:00:17;6.7;52.0
77803;DHT22;66993;48.256;16.422;2023-03-12T10:05:17;6.2;52.0
77803;DHT22;66993;48.256;16.422;2023-03-12T10:10:19;7.1;52.0
77803;DHT22;66993;48.256;16.422;2023-03-12T10:15:21;6.6;50.0
77803;DHT22;66993;48.256;16.422;2023-03-12T10:20:22;7.1;50.0
77803;DHT22;66993;48.256;16.422;2023-03-12T10:25:19;7.1;50.0
77803;DHT22;66993;48.256;16.422;2023-03-12T10:30:17;6.6;49.0
77803;DHT22;66993;48.256;16.422;2023-03-12T10:35:17;7.5;50.0
77803;DHT22;66993;48.256;16.422;2023-03-12T10:40:17;7.0;50.0
77803;DHT22;66993;48.256;16.422;2023-03-12T10:45:20;7.5;49.0
77803;DHT22;66993;48.256;16.422;2023-03-12T10:50:17;7.2;49.0
77803;DHT22;66993;48.256;16.422;2023-03-12T10:55:20;7.7;49.0
77803;DHT22;66993;48.256;16.422;2023-03-12T11:00:17;8.2;49.0
77803;DHT22;66993;48.256;16.422;2023-03-12T11:05:18;8.2;48.0
77803;DHT22;66993;48.256;16.422;2023-03-12T11:10:18;8.1;48.0
77803;DHT22;66993;48.256;16.422;2023-03-12T11:15:17;7.8;47.0
77803;DHT22;66993;48.256;16.422;2023-03-12T11:20:17;8.3;47.0
77803;DHT22;66993;48.256;16.422;2023-03-12T11:25:20;7.8;44.0
77803;DHT22;66993;48.256;16.422;2023-03-12T11:30:17;8.8;37.0
77803;DHT22;66993;48.256;16.422;2023-03-12T11:35:17;9.8;35.0
77803;DHT22;66993;48.256;16.422;2023-03-12T11:40:17;9.8;35.0
77803;DHT22;66993;48.256;16.422;2023-03-12T11:45:17;9.3;29.0
77803;DHT22;66993;48.256;16.422;2023-03-12T11:50:19;8.8;25.0
77803;DHT22;66993;48.256;16.422;2023-03-12T11:55:17;10.3;24.0
77803;DHT22;66993;48.256;16.422;2023-03-12T12:00:16;9.3;22.0
77803;DHT22;66993;48.256;16.422;2023-03-12T12:05:20;9.8;25.0
77803;DHT22;66993;48.256;16.422;2023-03-12T12:10:20;9.5;28.0
77803;DHT22;66993;48.256;16.422;2023-03-12T12:15:19;10.0;29.0
77803;DHT22;66993;48.256;16.422;2023-03-12T12:20:18;9.5;31.0
77803;DHT22;66993;48.256;16.422;2023-03-12T12:25:21;10.0;32.0
77803;DHT22;66993;48.256;16.422;2023-03-12T12:30:17;10.1;32.0
77803;DHT22;66993;48.256;16.422;2023-03-12T12:35:18;9.1;33.0
77803;DHT22;66993;48.256;16.422;2023-03-12T12:40:18;10.1;35.0
77803;DHT22;66993;48.256;16.422;2023-03-12T12:45:16;10.6;35.0
77803;DHT22;66993;48.256;16.422;2023-03-12T12:50:17;10.5;34.0
77803;DHT22;66993;48.256;16.422;2023-03-12T12:55:17;10.0;34.0
77803;DHT22;66993;48.256;16.422;2023-03-12T13:00:20;10.5;35.0
77803;DHT22;66993;48.256;16.422;2023-03-12T13:05:18;10.0;32.0
77803;DHT22;66993;48.256;16.422;2023-03-12T13:10:40;9.8;32.0
77803;DHT22;66993;48.256;16.422;2023-03-12T13:15:32;9.8;32.0
77803;DHT22;66993;48.256;16.422;2023-03-12T13:20:16;9.7;30.0
77803;DHT22;66993;48.256;16.422;2023-03-12T13:25:21;9.5;31.0
77803;DHT22;66993;48.256;16.422;2023-03-12T13:35:27;9.7;31.0
77803;DHT22;66993;48.256;16.422;2023-03-12T13:45:21;9.7;33.0
77803;DHT22;66993;48.256;16.422;2023-03-12T13:50:16;9.6;34.0
77803;DHT22;66993;48.256;16.422;2023-03-12T13:55:18;9.3;34.0
77803;DHT22;66993;48.256;16.422;2023-03-12T14:00:17;9.5;34.0
77803;DHT22;66993;48.256;16.422;2023-03-12T14:05:16;9.6;35.0
77803;DHT22;66993;48.256;16.422;2023-03-12T14:10:18;9.3;34.0
77803;DHT22;66993;48.256;16.422;2023-03-12T14:15:17;9.4;35.0
77803;DHT22;66993;48.256;16.422;2023-03-12T14:20:17;9.5;37.0
77803;DHT22;66993;48.256;16.422;2023-03-12T14:25:16;9.7;38.0
77803;DHT22;66993;48.256;16.422;2023-03-12T14:30:18;9.8;39.0
77803;DHT22;66993;48.256;16.422;2023-03-12T14:35:17;9.3;40.0
77803;DHT22;66993;48.256;16.422;2023-03-12T14:40:18;9.5;40.0
77803;DHT22;66993;48.256;16.422;2023-03-12T14:45:17;9.4;40.0
77803;DHT22;66993;48.256;16.422;2023-03-12T14:50:16;9.4;40.0
77803;DHT22;66993;48.256;16.422;2023-03-12T14:55:18;9.2;41.0
77803;DHT22;66993;48.256;16.422;2023-03-12T15:00:22;9.3;42.0
77803;DHT22;66993;48.256;16.422;2023-03-12T15:05:16;9.1;42.0
77803;DHT22;66993;48.256;16.422;2023-03-12T15:10:17;9.2;42.0
77803;DHT22;66993;48.256;16.422;2023-03-12T15:15:23;9.2;43.0
77803;DHT22;66993;48.256;16.422;2023-03-12T15:20:24;9.0;43.0
77803;DHT22;66993;48.256;16.422;2023-03-12T15:25:20;9.0;44.0
77803;DHT22;66993;48.256;16.422;2023-03-12T15:30:25;8.9;44.0
77803;DHT22;66993;48.256;16.422;2023-03-12T15:35:23;8.9;44.0
77803;DHT22;66993;48.256;16.422;2023-03-12T15:40:19;8.8;45.0
77803;DHT22;66993;48.256;16.422;2023-03-12T15:45:17;8.8;44.0
77803;DHT22;66993;48.256;16.422;2023-03-12T15:50:18;8.9;44.0
77803;DHT22;66993;48.256;16.422;2023-03-12T15:55:20;8.8;45.0
77803;DHT22;66993;48.256;16.422;2023-03-12T16:00:17;8.8;45.0
77803;DHT22;66993;48.256;16.422;2023-03-12T16:05:16;8.7;46.0
77803;DHT22;66993;48.256;16.422;2023-03-12T16:10:17;8.7;45.0
77803;DHT22;66993;48.256;16.422;2023-03-12T16:15:17;8.7;46.0
77803;DHT22;66993;48.256;16.422;2023-03-12T16:20:16;8.6;46.0
77803;DHT22;66993;48.256;16.422;2023-03-12T16:25:16;8.6;46.0
77803;DHT22;66993;48.256;16.422;2023-03-12T16:30:17;8.6;46.0
77803;DHT22;66993;48.256;16.422;2023-03-12T16:35:17;8.6;46.0
77803;DHT22;66993;48.256;16.422;2023-03-12T16:40:16;8.6;46.0
77803;DHT22;66993;48.256;16.422;2023-03-12T16:45:17;8.6;46.0
77803;DHT22;66993;48.256;16.422;2023-03-12T16:50:17;8.5;46.0
77803;DHT22;66993;48.256;16.422;2023-03-12T16:55:16;8.6;46.0
77803;DHT22;66993;48.256;16.422;2023-03-12T17:00:18;8.5;46.0
77803;DHT22;66993;48.256;16.422;2023-03-12T17:05:16;8.5;46.0
77803;DHT22;66993;48.256;16.422;2023-03-12T17:10:16;8.4;47.0
77803;DHT22;66993;48.256;16.422;2023-03-12T17:15:18;8.5;47.0
77803;DHT22;66993;48.256;16.422;2023-03-12T17:20:17;8.4;47.0
77803;DHT22;66993;48.256;16.422;2023-03-12T17:25:18;8.5;47.0
77803;DHT22;66993;48.256;16.422;2023-03-12T17:30:16;8.4;47.0
77803;DHT22;66993;48.256;16.422;2023-03-12T17:35:16;8.5;47.0
77803;DHT22;66993;48.256;16.422;2023-03-12T17:40:16;8.3;47.0
77803;DHT22;66993;48.256;16.422;2023-03-12T17:45:16;8.3;47.0
77803;DHT22;66993;48.256;16.422;2023-03-12T17:50:16;8.4;47.0
77803;DHT22;66993;48.256;16.422;2023-03-12T17:55:16;8.2;47.0
77803;DHT22;66993;48.256;16.422;2023-03-12T18:00:16;8.1;48.0
77803;DHT22;66993;48.256;16.422;2023-03-12T18:05:16;8.1;48.0
77803;DHT22;66993;48.256;16.422;2023-03-12T18:10:16;8.1;48.0
77803;DHT22;66993;48.256;16.422;2023-03-12T18:15:16;8.0;48.0
77803;DHT22;66993;48.256;16.422;2023-03-12T18:20:16;8.0;48.0
77803;DHT22;66993;48.256;16.422;2023-03-12T18:25:16;8.0;48.0
77803;DHT22;66993;48.256;16.422;2023-03-12T18:30:16;8.0;48.0
77803;DHT22;66993;48.256;16.422;2023-03-12T18:35:16;8.1;48.0
77803;DHT22;66993;48.256;16.422;2023-03-12T18:40:16;8.1;48.0
77803;DHT22;66993;48.256;16.422;2023-03-12T18:45:16;8.1;49.0
77803;DHT22;66993;48.256;16.422;2023-03-12T18:50:16;8.2;49.0
77803;DHT22;66993;48.256;16.422;2023-03-12T18:55:16;8.1;49.0
77803;DHT22;66993;48.256;16.422;2023-03-12T19:00:17;8.2;49.0
77803;DHT22;66993;48.256;16.422;2023-03-12T19:05:16;8.2;49.0
77803;DHT22;66993;48.256;16.422;2023-03-12T19:10:16;8.1;49.0
77803;DHT22;66993;48.256;16.422;2023-03-12T19:15:16;8.0;49.0
77803;DHT22;66993;48.256;16.422;2023-03-12T19:20:16;8.0;49.0
77803;DHT22;66993;48.256;16.422;2023-03-12T19:25:16;8.0;49.0
77803;DHT22;66993;48.256;16.422;2023-03-12T19:30:16;8.1;50.0
77803;DHT22;66993;48.256;16.422;2023-03-12T19:35:16;8.1;50.0
77803;DHT22;66993;48.256;16.422;2023-03-12T19:40:16;7.9;54.0
77803;DHT22;66993;48.256;16.422;2023-03-12T19:45:16;7.7;57.0
77803;DHT22;66993;48.256;16.422;2023-03-12T19:50:16;7.3;60.0
77803;DHT22;66993;48.256;16.422;2023-03-12T19:55:16;7.2;62.0
77803;DHT22;66993;48.256;16.422;2023-03-12T20:00:16;6.9;63.0
77803;DHT22;66993;48.256;16.422;2023-03-12T20:05:16;6.9;63.0
77803;DHT22;66993;48.256;16.422;2023-03-12T20:10:16;6.6;63.0
77803;DHT22;66993;48.256;16.422;2023-03-12T20:15:16;6.6;63.0
77803;DHT22;66993;48.256;16.422;2023-03-12T20:20:16;6.7;63.0
77803;DHT22;66993;48.256;16.422;2023-03-12T20:25:16;6.7;63.0
77803;DHT22;66993;48.256;16.422;2023-03-12T20:30:16;6.8;63.0
77803;DHT22;66993;48.256;16.422;2023-03-12T20:35:16;6.7;72.0
77803;DHT22;66993;48.256;16.422;2023-03-12T20:40:16;6.7;72.0
77803;DHT22;66993;48.256;16.422;2023-03-12T20:45:16;6.7;72.0
77803;DHT22;66993;48.256;16.422;2023-03-12T20:50:16;6.6;72.0
77803;DHT22;66993;48.256;16.422;2023-03-12T20:55:16;6.8;71.0
77803;DHT22;66993;48.256;16.422;2023-03-12T21:00:16;7.0;71.0
77803;DHT22;66993;48.256;16.422;2023-03-12T21:05:16;6.8;71.0
77803;DHT22;66993;48.256;16.422;2023-03-12T21:10:16;7.0;71.0
77803;DHT22;66993;48.256;16.422;2023-03-12T21:15:16;7.0;71.0
77803;DHT22;66993;48.256;16.422;2023-03-12T21:20:16;7.0;71.0
77803;DHT22;66993;48.256;16.422;2023-03-12T21:25:16;7.2;71.0
77803;DHT22;66993;48.256;16.422;2023-03-12T21:30:16;7.2;72.0
77803;DHT22;66993;48.256;16.422;2023-03-12T21:35:16;7.0;72.0
77803;DHT22;66993;48.256;16.422;2023-03-12T21:40:16;7.0;72.0
77803;DHT22;66993;48.256;16.422;2023-03-12T21:45:16;6.9;72.0
77803;DHT22;66993;48.256;16.422;2023-03-12T21:50:16;6.9;73.0
77803;DHT22;66993;48.256;16.422;2023-03-12T21:55:16;7.1;73.0
77803;DHT22;66993;48.256;16.422;2023-03-12T22:00:16;7.2;74.0
77803;DHT22;66993;48.256;16.422;2023-03-12T22:05:16;7.4;75.0
77803;DHT22;66993;48.256;16.422;2023-03-12T22:10:16;7.6;76.0
77803;DHT22;66993;48.256;16.422;2023-03-12T22:15:16;7.7;76.0
77803;DHT22;66993;48.256;16.422;2023-03-12T22:20:16;7.8;77.0
77803;DHT22;66993;48.256;16.422;2023-03-12T22:25:16;7.8;77.0
77803;DHT22;66993;48.256;16.422;2023-03-12T22:30:16;7.7;78.0
77803;DHT22;66993;48.256;16.422;2023-03-12T22:35:16;7.5;78.0
77803;DHT22;66993;48.256;16.422;2023-03-12T22:40:16;7.5;78.0
77803;DHT22;66993;48.256;16.422;2023-03-12T22:45:16;7.7;78.0
77803;DHT22;66993;48.256;16.422;2023-03-12T22:50:16;7.7;78.0
77803;DHT22;66993;48.256;16.422;2023-03-12T22:55:16;7.6;79.0
77803;DHT22;66993;48.256;16.422;2023-03-12T23:00:17;7.6;79.0
77803;DHT22;66993;48.256;16.422;2023-03-12T23:05:16;7.5;79.0
77803;DHT22;66993;48.256;16.422;2023-03-12T23:10:16;7.5;79.0
77803;DHT22;66993;48.256;16.422;2023-03-12T23:15:16;7.7;77.0
77803;DHT22;66993;48.256;16.422;2023-03-12T23:20:16;7.6;76.0
77803;DHT22;66993;48.256;16.422;2023-03-12T23:25:16;7.5;76.0
77803;DHT22;66993;48.256;16.422;2023-03-12T23:30:16;7.4;75.0
77803;DHT22;66993;48.256;16.422;2023-03-12T23:35:16;7.4;75.0
77803;DHT22;66993;48.256;16.422;2023-03-12T23:40:16;7.4;75.0
77803;DHT22;66993;48.256;16.422;2023-03-12T23:45:16;7.2;75.0
77803;DHT22;66993;48.256;16.422;2023-03-12T23:50:16;7.2;75.0
77803;DHT22;66993;48.256;16.422;2023-03-12T23:55:16;7.1;75.0
